Time;durP1;ratioP1;P1;durP2;ratioP2;P2;SDS_P1;SDS_P2;PMS_P1;PMS_P2;Temp;Humidity;BMP_temperature;BMP_pressure;BME280_temperature;BME280_humidity;BME280_pressure;Samples;Min_cycle;Max_cycle;Signal;HPM_P1;HPM_P2
2023/03/23 00:02:07;;;;;;;4.97;2.03;;;;;;;14.10;nan;100386.53;4987040;28;20509;-55
2023/03/23 00:04:32;;;;;;;6.15;2.83;;;;;;;14.07;nan;100385.94;4996564;28;20106;-53
2023/03/23 00:07:01;;;;;;;8.85;2.92;;;;;;;14.00;nan;100375.81;4996348;28;20018;-53
2023/03/23 00:09:26;;;;;;;4.20;2.65;;;;;;;14.00;nan;100373.19;4997498;28;20030;-53
2023/03/23 00:11:56;;;;;;;6.95;3.17;;;;;;;14.00;nan;100373.19;5001020;28;20022;-53
2023/03/23 00:14:22;;;;;;;4.95;2.78;;;;;;;13.94;nan;100365.75;5007142;28;20044;-55
2023/03/23 00:16:48;;;;;;;9.20;3.15;;;;;;;13.88;nan;100360.91;5003202;28;20033;-54
2023/03/23 00:19:14;;;;;;;7.70;3.00;;;;;;;13.85;nan;100363.78;5000214;28;20038;-53
2023/03/23 00:21:42;;;;;;;5.93;3.08;;;;;;;13.82;nan;100362.22;4998504;28;20702;-53
2023/03/23 00:24:11;;;;;;;8.05;3.00;;;;;;;13.78;nan;100362.59;5002263;28;20698;-52
2023/03/23 00:26:40;;;;;;;5.85;2.97;;;;;;;13.72;nan;100359.47;4994837;28;20169;-53
2023/03/23 00:29:07;;;;;;;8.40;3.17;;;;;;;13.68;nan;100373.91;5000002;28;20057;-53
2023/03/23 00:31:35;;;;;;;8.80;3.75;;;;;;;13.67;nan;100355.50;4998870;28;20542;-54
2023/03/23 00:34:03;;;;;;;4.28;2.70;;;;;;;13.65;nan;100352.97;4987028;28;20041;-52
2023/03/23 00:36:31;;;;;;;2.97;1.52;;;;;;;13.60;nan;100360.41;4999025;28;20025;-52
2023/03/23 00:39:01;;;;;;;9.43;3.00;;;;;;;13.59;nan;100358.72;5001021;28;20048;-54
2023/03/23 00:41:27;;;;;;;4.53;2.78;;;;;;;13.56;nan;100356.31;4992986;28;20042;-53
2023/03/23 00:43:55;;;;;;;7.53;3.10;;;;;;;13.52;nan;100346.94;5000842;28;20037;-51
2023/03/23 00:46:20;;;;;;;6.22;2.80;;;;;;;13.50;nan;100340.94;5005924;28;20109;-55
2023/03/23 00:48:46;;;;;;;6.47;2.88;;;;;;;13.51;nan;100330.22;5001519;28;20029;-52
2023/03/23 00:51:12;;;;;;;4.70;2.65;;;;;;;13.49;nan;100342.72;5004684;28;20026;-52
2023/03/23 00:53:39;;;;;;;7.85;3.22;;;;;;;13.46;nan;100342.13;5001403;28;20382;-52
2023/03/23 00:56:05;;;;;;;7.95;3.08;;;;;;;13.41;nan;100332.72;5006312;28;20505;-53
2023/03/23 00:58:30;;;;;;;11.15;3.67;;;;;;;13.37;nan;100328.63;4983895;28;20033;-52
2023/03/23 01:00:56;;;;;;;4.75;2.78;;;;;;;13.35;nan;100319.13;4998420;28;20631;-53
2023/03/23 01:03:25;;;;;;;8.45;2.95;;;;;;;13.35;nan;100303.25;5002368;28;20034;-52
2023/03/23 01:05:51;;;;;;;7.05;3.10;;;;;;;13.34;nan;100304.22;4990725;28;20033;-51
2023/03/23 01:08:19;;;;;;;5.55;2.53;;;;;;;13.32;nan;100298.19;5001417;28;20137;-53
2023/03/23 01:10:46;;;;;;;10.73;3.67;;;;;;;13.32;nan;100304.34;4997675;28;20030;-52
2023/03/23 01:13:12;;;;;;;7.82;2.63;;;;;;;13.27;nan;100296.78;4998906;28;20044;-53
2023/03/23 01:15:38;;;;;;;9.68;3.60;;;;;;;13.26;nan;100299.53;5004684;28;20116;-53
2023/03/23 01:18:04;;;;;;;5.82;2.38;;;;;;;13.25;nan;100287.25;5004200;28;20497;-54
2023/03/23 01:20:31;;;;;;;6.28;2.90;;;;;;;13.23;nan;100281.28;5001662;28;20049;-53
2023/03/23 01:23:00;;;;;;;8.40;3.15;;;;;;;13.20;nan;100277.06;4991259;28;20060;-53
2023/03/23 01:25:30;;;;;;;5.30;3.10;;;;;;;13.18;nan;100283.44;5000816;28;20038;-52
2023/03/23 01:27:57;;;;;;;6.47;2.60;;;;;;;13.16;nan;100272.13;5004978;28;20033;-52
2023/03/23 01:30:23;;;;;;;3.95;2.45;;;;;;;13.15;nan;100279.22;5004455;28;20556;-53
2023/03/23 01:32:49;;;;;;;6.15;2.80;;;;;;;13.14;nan;100293.38;4984728;28;20125;-52
2023/03/23 01:35:15;;;;;;;5.20;2.25;;;;;;;13.13;nan;100285.56;5002721;28;20116;-52
2023/03/23 01:37:41;;;;;;;7.95;2.70;;;;;;;13.11;nan;100285.69;4982763;28;20035;-52
2023/03/23 01:40:08;;;;;;;5.68;2.78;;;;;;;13.07;nan;100282.44;4994383;28;20022;-53
2023/03/23 01:42:35;;;;;;;7.60;2.63;;;;;;;13.08;nan;100276.19;5002269;28;20041;-53
2023/03/23 01:45:22;;;;;;;4.65;2.58;;;;;;;13.05;nan;100273.78;4994854;28;20073;-53
2023/03/23 01:48:02;;;;;;;8.85;2.78;;;;;;;13.05;nan;100265.88;4998516;28;20064;-54
2023/03/23 01:50:34;;;;;;;6.30;2.67;;;;;;;13.04;nan;100264.19;4996933;28;20478;-54
2023/03/23 01:53:02;;;;;;;6.97;2.42;;;;;;;13.01;nan;100264.41;4998894;28;20485;-54
2023/03/23 01:55:28;;;;;;;4.25;2.42;;;;;;;13.01;nan;100263.59;4998375;28;20198;-53
2023/03/23 01:57:56;;;;;;;8.20;3.17;;;;;;;12.98;nan;100269.09;4994626;28;20030;-53
2023/03/23 02:00:23;;;;;;;4.97;2.65;;;;;;;12.96;nan;100271.84;4998103;28;20042;-52
2023/03/23 02:02:50;;;;;;;6.57;2.33;;;;;;;12.97;nan;100268.22;4992722;28;20032;-53
2023/03/23 02:05:24;;;;;;;5.13;2.35;;;;;;;12.98;nan;100269.91;4984010;28;20045;-52
2023/03/23 02:07:51;;;;;;;7.50;1.90;;;;;;;12.96;nan;100266.56;4999826;28;20030;-53
2023/03/23 02:10:16;;;;;;;5.57;2.90;;;;;;;12.93;nan;100256.25;5001652;28;20048;-54
2023/03/23 02:12:42;;;;;;;6.03;2.53;;;;;;;12.93;nan;100251.78;5000717;28;20034;-56
2023/03/23 02:15:09;;;;;;;3.30;2.10;;;;;;;12.94;nan;100252.63;4995838;28;20112;-52
2023/03/23 02:18:01;;;;;;;4.78;2.20;;;;;;;12.95;nan;100254.31;5000278;28;20041;-52
2023/03/23 02:20:37;;;;;;;4.75;2.00;;;;;;;12.97;nan;100241.81;4999439;28;20026;-53
2023/03/23 02:23:35;;;;;;;5.03;2.60;;;;;;;12.99;nan;100247.00;4996437;28;20056;-52
2023/03/23 02:26:16;;;;;;;5.03;2.30;;;;;;;13.01;nan;100253.03;4995939;28;20123;-53
2023/03/23 02:29:11;;;;;;;6.05;2.83;;;;;;;13.03;nan;100249.28;5002831;28;20477;-52
2023/03/23 02:31:48;;;;;;;4.78;2.20;;;;;;;13.05;nan;100250.03;4992792;28;20073;-52
2023/03/23 02:34:21;;;;;;;5.63;2.00;;;;;;;13.06;nan;100238.50;4998906;28;20030;-52
2023/03/23 02:37:00;;;;;;;5.03;2.20;;;;;;;13.06;nan;100238.50;5001595;28;20033;-53
2023/03/23 02:39:36;;;;;;;7.53;2.00;;;;;;;13.05;nan;100228.91;4998502;28;20029;-54
2023/03/23 02:42:07;;;;;;;5.03;2.90;;;;;;;13.09;nan;100218.94;4993948;28;20034;-58
2023/03/23 02:44:38;;;;;;;5.57;2.17;;;;;;;13.10;nan;100218.78;4997819;28;20706;-52
2023/03/23 02:47:07;;;;;;;6.35;2.05;;;;;;;13.11;nan;100217.84;5000558;28;20025;-52
2023/03/23 02:49:36;;;;;;;3.15;1.92;;;;;;;13.14;nan;100215.94;5002157;28;20037;-54
2023/03/23 02:52:15;;;;;;;3.55;1.98;;;;;;;13.16;nan;100214.00;4994559;28;20488;-52
2023/03/23 02:54:44;;;;;;;3.05;1.83;;;;;;;13.17;nan;100207.78;4993061;28;20449;-55
2023/03/23 02:57:09;;;;;;;4.20;1.75;;;;;;;13.19;nan;100219.06;4987348;28;20035;-53
2023/03/23 02:59:35;;;;;;;5.22;2.35;;;;;;;13.19;nan;100205.84;5003973;28;20451;-53
2023/03/23 03:02:09;;;;;;;22.73;4.35;;;;;;;13.22;nan;100202.97;4996768;28;20034;-51
2023/03/23 03:04:42;;;;;;;5.25;2.50;;;;;;;13.20;nan;100210.19;4981421;28;20445;-54
2023/03/23 03:07:15;;;;;;;5.43;2.22;;;;;;;13.20;nan;100215.47;4996226;28;20033;-53
2023/03/23 03:09:53;;;;;;;8.23;2.55;;;;;;;13.19;nan;100219.88;5000907;28;20113;-54
2023/03/23 03:12:32;;;;;;;4.55;2.08;;;;;;;13.22;nan;100217.03;4987581;28;20022;-52
2023/03/23 03:15:08;;;;;;;4.05;1.90;;;;;;;13.23;nan;100215.22;4998792;28;20590;-52
2023/03/23 03:17:40;;;;;;;5.18;2.20;;;;;;;13.21;nan;100212.69;4997084;28;20382;-53
2023/03/23 03:20:11;;;;;;;4.22;2.00;;;;;;;13.24;nan;100212.47;4994082;28;20034;-53
2023/03/23 03:22:41;;;;;;;4.90;2.15;;;;;;;13.26;nan;100220.25;5000127;28;20038;-53
2023/03/23 03:25:09;;;;;;;7.15;2.40;;;;;;;13.26;nan;100214.97;4999754;28;20030;-52
2023/03/23 03:27:35;;;;;;;6.65;2.20;;;;;;;13.26;nan;100222.91;4997850;28;20040;-52
2023/03/23 03:30:04;;;;;;;4.10;2.15;;;;;;;13.26;nan;100233.47;4998378;28;20038;-54
2023/03/23 03:32:38;;;;;;;3.47;2.13;;;;;;;13.24;nan;100233.59;5002846;28;20033;-52
2023/03/23 03:35:05;;;;;;;6.88;2.38;;;;;;;13.21;nan;100233.00;5002866;28;20682;-52
2023/03/23 03:37:37;;;;;;;3.65;2.15;;;;;;;13.18;nan;100238.50;4999368;28;20134;-54
2023/03/23 03:40:11;;;;;;;5.30;2.10;;;;;;;13.19;nan;100243.66;5003204;28;20026;-54
2023/03/23 03:42:46;;;;;;;4.10;2.35;;;;;;;13.21;nan;100233.00;5007129;28;20164;-52
2023/03/23 03:45:15;;;;;;;4.25;2.08;;;;;;;13.23;nan;100241.66;4994396;28;20117;-55
2023/03/23 03:47:40;;;;;;;4.28;2.25;;;;;;;13.22;nan;100230.22;4998994;28;20724;-52
2023/03/23 03:50:06;;;;;;;6.25;2.40;;;;;;;13.20;nan;100231.31;5004937;28;20465;-52
2023/03/23 03:52:32;;;;;;;4.05;2.33;;;;;;;13.16;nan;100235.97;5001203;28;20121;-53
2023/03/23 03:54:58;;;;;;;3.47;2.25;;;;;;;13.14;nan;100237.06;5003013;28;20172;-52
2023/03/23 03:57:24;;;;;;;3.90;2.22;;;;;;;13.13;nan;100230.94;4998175;28;20034;-51
2023/03/23 03:59:50;;;;;;;4.63;2.33;;;;;;;13.09;nan;100235.59;4989709;28;20053;-53
2023/03/23 04:02:19;;;;;;;5.88;2.33;;;;;;;13.07;nan;100245.47;4994362;28;20059;-52
2023/03/23 04:04:49;;;;;;;4.63;2.50;;;;;;;13.05;nan;100236.81;4998765;28;20038;-52
2023/03/23 04:07:16;;;;;;;5.70;2.95;;;;;;;13.02;nan;100242.31;5002886;28;20034;-53
2023/03/23 04:09:43;;;;;;;5.93;2.70;;;;;;;13.02;nan;100244.09;5002185;28;20030;-51
2023/03/23 04:12:09;;;;;;;4.63;2.45;;;;;;;12.97;nan;100249.75;4999423;28;20045;-52
2023/03/23 04:14:35;;;;;;;6.00;2.45;;;;;;;12.91;nan;100245.78;4997319;28;20021;-54
2023/03/23 04:17:00;;;;;;;6.18;2.65;;;;;;;12.87;nan;100246.13;4992282;28;20057;-53
2023/03/23 04:19:28;;;;;;;5.10;3.00;;;;;;;12.81;nan;100247.44;5000406;28;20053;-54
2023/03/23 04:21:54;;;;;;;7.18;3.63;;;;;;;12.72;nan;100232.28;5000696;28;20038;-52
2023/03/23 04:24:23;;;;;;;7.10;2.83;;;;;;;12.69;nan;100238.63;5000815;28;20088;-53
2023/03/23 04:26:51;;;;;;;6.18;3.30;;;;;;;12.65;nan;100237.16;5000466;28;20030;-52
2023/03/23 04:29:19;;;;;;;7.82;4.00;;;;;;;12.66;nan;100233.56;5003804;28;20144;-53
2023/03/23 04:31:45;;;;;;;5.50;3.22;;;;;;;12.64;nan;100225.78;4999644;28;20608;-54
2023/03/23 04:34:14;;;;;;;4.85;2.83;;;;;;;12.63;nan;100223.25;5001701;28;20038;-53
2023/03/23 04:36:40;;;;;;;4.95;2.70;;;;;;;12.62;nan;100205.75;5001883;28;20037;-52
2023/03/23 04:39:09;;;;;;;5.60;2.83;;;;;;;12.61;nan;100215.44;5003825;28;20473;-53
2023/03/23 04:41:36;;;;;;;7.40;3.50;;;;;;;12.63;nan;100207.41;5005792;28;20034;-52
2023/03/23 04:44:04;;;;;;;6.55;2.92;;;;;;;12.67;nan;100214.16;5002670;28;20033;-52
2023/03/23 04:46:30;;;;;;;11.70;3.35;;;;;;;12.67;nan;100211.50;4998713;28;20489;-55
2023/03/23 04:48:58;;;;;;;5.82;2.60;;;;;;;12.65;nan;100211.63;5002892;28;20168;-53
2023/03/23 04:51:25;;;;;;;4.93;2.95;;;;;;;12.66;nan;100212.47;5005022;28;20033;-52
2023/03/23 04:53:51;;;;;;;8.75;3.33;;;;;;;12.70;nan;100206.00;5002065;28;21284;-53
2023/03/23 04:56:18;;;;;;;7.57;3.10;;;;;;;12.73;nan;100216.34;5004425;28;20037;-55
2023/03/23 04:58:44;;;;;;;6.93;2.92;;;;;;;12.71;nan;100235.84;5000641;28;20045;-52
2023/03/23 05:01:13;;;;;;;5.43;2.83;;;;;;;12.69;nan;100232.53;5000963;28;20026;-52
2023/03/23 05:03:42;;;;;;;6.97;3.20;;;;;;;12.64;nan;100232.84;4999073;28;20038;-52
2023/03/23 05:06:07;;;;;;;7.55;2.78;;;;;;;12.59;nan;100217.34;4996990;28;20056;-52
2023/03/23 05:08:33;;;;;;;5.97;2.83;;;;;;;12.57;nan;100229.00;5001724;28;20635;-51
2023/03/23 05:11:00;;;;;;;5.03;2.80;;;;;;;12.59;nan;100227.09;5002248;28;20077;-52
2023/03/23 05:13:27;;;;;;;5.70;2.83;;;;;;;12.58;nan;100238.59;4999500;28;20029;-52
2023/03/23 05:15:53;;;;;;;7.35;3.03;;;;;;;12.54;nan;100239.78;4998950;28;20041;-52
2023/03/23 05:18:20;;;;;;;6.47;3.00;;;;;;;12.50;nan;100241.81;5004403;28;20034;-52
2023/03/23 05:20:46;;;;;;;5.25;2.90;;;;;;;12.46;nan;100238.56;5000912;28;20390;-52
2023/03/23 05:23:12;;;;;;;6.97;3.20;;;;;;;12.44;nan;100239.59;4995627;28;20577;-52
2023/03/23 05:25:41;;;;;;;7.95;3.88;;;;;;;12.41;nan;100232.75;4999502;28;20036;-52
2023/03/23 05:28:08;;;;;;;8.82;3.72;;;;;;;12.42;nan;100231.81;5000280;28;20034;-55
2023/03/23 05:30:35;;;;;;;4.65;3.13;;;;;;;12.43;nan;100235.28;4987688;28;20033;-55
2023/03/23 05:33:01;;;;;;;4.40;2.88;;;;;;;12.40;nan;100230.25;4998774;28;20041;-54
2023/03/23 05:35:27;;;;;;;8.10;3.63;;;;;;;12.37;nan;100226.03;4993899;28;20041;-52
2023/03/23 05:37:53;;;;;;;8.73;3.42;;;;;;;12.33;nan;100216.66;4989843;28;20029;-52
2023/03/23 05:40:20;;;;;;;6.00;3.42;;;;;;;12.35;nan;100220.88;4985610;28;20042;-53
2023/03/23 05:42:47;;;;;;;7.18;3.47;;;;;;;12.39;nan;100218.00;4993072;28;20062;-54
2023/03/23 05:45:12;;;;;;;4.40;3.35;;;;;;;12.39;nan;100221.47;4994270;28;20033;-55
2023/03/23 05:47:40;;;;;;;5.53;2.90;;;;;;;12.40;nan;100217.06;4995278;28;20045;-53
2023/03/23 05:50:08;;;;;;;4.25;3.05;;;;;;;12.40;nan;100220.53;4985885;28;20058;-54
2023/03/23 05:52:38;;;;;;;4.18;2.55;;;;;;;12.43;nan;100215.03;4998238;28;20054;-55
2023/03/23 05:55:04;;;;;;;5.85;2.83;;;;;;;12.46;nan;100221.88;4999325;28;20026;-54
2023/03/23 05:57:30;;;;;;;7.05;3.30;;;;;;;12.47;nan;100224.41;4992707;28;20036;-53
2023/03/23 05:59:57;;;;;;;7.20;3.20;;;;;;;12.49;nan;100227.75;4988397;28;20896;-53
2023/03/23 06:02:24;;;;;;;6.43;3.88;;;;;;;12.50;nan;100234.72;4989501;28;20116;-53
2023/03/23 06:04:50;;;;;;;5.40;3.85;;;;;;;12.49;nan;100232.19;4998837;28;20053;-53
2023/03/23 06:07:16;;;;;;;6.18;1.83;;;;;;;12.45;nan;100218.41;4996208;28;20456;-54
2023/03/23 06:09:42;;;;;;;5.28;2.50;;;;;;;12.46;nan;100220.09;5004769;28;20065;-53
2023/03/23 06:12:09;;;;;;;5.10;2.83;;;;;;;12.41;nan;100227.50;5005355;28;20061;-52
2023/03/23 06:14:36;;;;;;;6.97;3.03;;;;;;;12.41;nan;100230.13;4993635;28;20089;-57
2023/03/23 06:17:02;;;;;;;8.25;3.58;;;;;;;12.43;nan;100227.38;4997695;28;20441;-52
2023/03/23 06:19:27;;;;;;;4.80;2.80;;;;;;;12.37;nan;100228.66;5002310;28;20114;-52
2023/03/23 06:21:56;;;;;;;5.90;2.97;;;;;;;12.33;nan;100228.06;5002074;28;20041;-54
2023/03/23 06:24:22;;;;;;;5.35;3.13;;;;;;;12.34;nan;100231.53;5006886;28;20525;-56
2023/03/23 06:26:48;;;;;;;6.07;3.08;;;;;;;12.35;nan;100236.69;5001994;28;20151;-56
2023/03/23 06:29:16;;;;;;;7.47;3.45;;;;;;;12.34;nan;100228.88;5000921;28;20054;-53
2023/03/23 06:31:54;;;;;;;9.00;4.10;;;;;;;12.35;nan;100225.28;4993079;28;20014;-55
2023/03/23 06:34:19;;;;;;;4.82;3.15;;;;;;;12.35;nan;100227.94;5000824;28;20038;-54
2023/03/23 06:36:45;;;;;;;5.25;3.10;;;;;;;12.35;nan;100230.56;4997405;28;20041;-53
2023/03/23 06:39:10;;;;;;;6.57;3.38;;;;;;;12.38;nan;100225.06;5004616;28;20369;-53
2023/03/23 06:41:36;;;;;;;6.22;2.65;;;;;;;12.41;nan;100240.69;5004319;28;20519;-52
2023/03/23 06:44:02;;;;;;;6.53;3.00;;;;;;;12.38;nan;100230.34;5001142;28;20400;-56
2023/03/23 06:46:28;;;;;;;4.38;2.83;;;;;;;12.39;nan;100239.94;5003839;28;20396;-53
2023/03/23 06:48:54;;;;;;;9.32;3.22;;;;;;;12.43;nan;100244.06;5002746;28;20144;-55
2023/03/23 06:51:19;;;;;;;9.07;3.38;;;;;;;12.41;nan;100245.97;5004348;28;20032;-53
2023/03/23 06:53:45;;;;;;;6.30;2.97;;;;;;;12.40;nan;100241.63;4997066;28;20041;-53
2023/03/23 06:56:12;;;;;;;4.85;2.95;;;;;;;12.39;nan;100244.41;5009036;28;20037;-53
2023/03/23 06:58:38;;;;;;;5.32;3.03;;;;;;;12.37;nan;100244.50;5007840;28;20034;-53
2023/03/23 07:01:04;;;;;;;8.30;3.20;;;;;;;12.36;nan;100253.34;5003310;28;20100;-53
2023/03/23 07:03:31;;;;;;;6.07;3.50;;;;;;;12.37;nan;100255.03;5001624;28;20569;-56
2023/03/23 07:05:58;;;;;;;6.90;2.88;;;;;;;12.38;nan;100234.78;5000333;28;20487;-54
2023/03/23 07:08:24;;;;;;;5.57;3.17;;;;;;;12.41;nan;100237.19;4997035;28;20037;-52
2023/03/23 07:10:54;;;;;;;7.22;3.67;;;;;;;12.42;nan;100236.22;4998543;28;20031;-52
2023/03/23 07:13:20;;;;;;;8.52;3.85;;;;;;;12.41;nan;100230.13;5001724;28;20507;-52
2023/03/23 07:15:46;;;;;;;5.38;3.25;;;;;;;12.43;nan;100227.38;4999505;28;20976;-52
2023/03/23 07:18:12;;;;;;;8.18;3.30;;;;;;;12.47;nan;100240.25;4995054;28;20061;-54
2023/03/23 07:20:37;;;;;;;10.73;3.58;;;;;;;12.50;nan;100241.81;5002929;28;20237;-55
2023/03/23 07:23:05;;;;;;;6.82;3.42;;;;;;;12.49;nan;100235.66;5002261;28;20405;-55
2023/03/23 07:25:32;;;;;;;8.45;3.95;;;;;;;12.54;nan;100237.13;5000557;28;20039;-53
2023/03/23 07:28:02;;;;;;;8.98;4.13;;;;;;;12.56;nan;100240.50;5009617;28;20480;-52
2023/03/23 07:30:29;;;;;;;8.00;3.53;;;;;;;12.57;nan;100239.56;5001854;28;20021;-53
2023/03/23 07:32:55;;;;;;;5.57;3.22;;;;;;;12.59;nan;100237.66;5008165;28;20500;-53
2023/03/23 07:35:20;;;;;;;5.63;3.63;;;;;;;12.61;nan;100243.66;5007266;28;20038;-53
2023/03/23 07:37:48;;;;;;;6.53;3.47;;;;;;;12.62;nan;100237.41;5005842;28;20041;-53
2023/03/23 07:40:15;;;;;;;6.95;3.38;;;;;;;12.66;nan;100238.84;5009954;28;20022;-53
2023/03/23 07:42:49;;;;;;;7.25;3.10;;;;;;;12.69;nan;100238.63;5009039;28;20041;-52
2023/03/23 07:45:15;;;;;;;7.90;3.10;;;;;;;12.72;nan;100240.19;5009009;28;20041;-52
2023/03/23 07:47:40;;;;;;;7.72;3.75;;;;;;;12.71;nan;100247.28;5011770;28;20034;-53
2023/03/23 07:50:07;;;;;;;7.35;3.38;;;;;;;12.72;nan;100240.19;5008591;28;20184;-51
2023/03/23 07:52:34;;;;;;;5.03;2.85;;;;;;;12.73;nan;100240.09;5009028;28;20485;-55
2023/03/23 07:55:01;;;;;;;7.28;3.50;;;;;;;12.75;nan;100242.59;5006756;28;20033;-52
2023/03/23 07:57:28;;;;;;;5.18;3.08;;;;;;;12.75;nan;100247.88;5003178;28;20144;-53
2023/03/23 07:59:53;;;;;;;6.32;3.30;;;;;;;12.71;nan;100247.28;5007139;28;20033;-52
2023/03/23 08:02:19;;;;;;;4.47;2.80;;;;;;;12.73;nan;100240.09;5005524;28;20030;-52
2023/03/23 08:04:45;;;;;;;8.80;3.10;;;;;;;12.75;nan;100240.81;5004279;28;20034;-51
2023/03/23 08:07:16;;;;;;;7.75;3.28;;;;;;;12.79;nan;100242.25;5005463;28;20026;-55
2023/03/23 08:09:42;;;;;;;7.93;3.28;;;;;;;12.81;nan;100242.16;5004949;28;20049;-53
2023/03/23 08:12:07;;;;;;;6.13;3.25;;;;;;;12.83;nan;100234.97;5002187;28;20399;-52
2023/03/23 08:14:33;;;;;;;6.68;3.15;;;;;;;12.85;nan;100234.84;5008006;28;20473;-52
2023/03/23 08:16:58;;;;;;;5.13;2.72;;;;;;;12.85;nan;100233.06;5000467;28;20072;-51
2023/03/23 08:19:24;;;;;;;9.25;3.03;;;;;;;12.87;nan;100219.72;4998840;28;20038;-54
2023/03/23 08:21:49;;;;;;;6.25;3.53;;;;;;;12.90;nan;100230.06;5008970;28;20095;-53
2023/03/23 08:24:16;;;;;;;8.13;3.78;;;;;;;12.90;nan;100214.22;5007438;28;20040;-52
2023/03/23 08:26:41;;;;;;;8.75;4.47;;;;;;;12.97;nan;100204.84;5009364;28;20137;-56
2023/03/23 08:29:08;;;;;;;8.50;3.35;;;;;;;13.00;nan;100194.06;4999994;28;20473;-52
2023/03/23 08:31:35;;;;;;;7.50;2.70;;;;;;;13.04;nan;100203.44;5009507;28;20025;-52
2023/03/23 08:34:07;;;;;;;7.78;3.22;;;;;;;13.07;nan;100200.56;5009521;28;20029;-53
2023/03/23 08:36:33;;;;;;;;;;;;;;;13.07;nan;100205.84;5008878;28;20465;-52
2023/03/23 08:38:59;;;;;;;4.10;2.13;;;;;;;13.07;nan;100203.22;5007437;28;19941;-53
2023/03/23 08:41:24;;;;;;;4.50;2.60;;;;;;;13.10;nan;100200.31;5005906;28;20038;-53
2023/03/23 08:43:52;;;;;;;5.47;2.78;;;;;;;13.09;nan;100181.94;5007951;28;20030;-53
2023/03/23 08:46:19;;;;;;;6.60;2.78;;;;;;;13.11;nan;100194.06;5005312;28;20396;-52
2023/03/23 08:48:45;;;;;;;6.90;3.15;;;;;;;13.18;nan;100210.28;5003089;28;20100;-52
2023/03/23 08:51:11;;;;;;;6.55;3.17;;;;;;;13.25;nan;100221.22;5000845;28;20030;-54
2023/03/23 08:53:37;;;;;;;4.43;2.13;;;;;;;13.25;nan;100227.34;5004334;28;20033;-55
2023/03/23 08:56:09;;;;;;;5.82;2.55;;;;;;;13.29;nan;100225.31;5006317;28;20017;-53
2023/03/23 08:58:39;;;;;;;4.10;2.38;;;;;;;13.31;nan;100228.69;5001043;28;20033;-52
2023/03/23 09:01:07;;;;;;;6.20;2.65;;;;;;;13.37;nan;100225.56;5013646;28;20030;-52
2023/03/23 09:03:34;;;;;;;4.28;2.35;;;;;;;13.42;nan;100225.25;5004472;28;20030;-52
2023/03/23 09:06:05;;;;;;;7.30;2.45;;;;;;;13.48;nan;100235.31;5001593;28;20054;-52
2023/03/23 09:08:31;;;;;;;5.03;2.00;;;;;;;13.53;nan;100237.63;5003351;28;20030;-51
2023/03/23 09:11:00;;;;;;;4.60;1.85;;;;;;;13.60;nan;100237.97;5002275;28;20049;-52
2023/03/23 09:13:26;;;;;;;6.10;2.75;;;;;;;13.64;nan;100239.41;5009628;28;20497;-52
2023/03/23 09:15:52;;;;;;;5.93;2.47;;;;;;;13.66;nan;100240.13;5000801;28;20036;-56
2023/03/23 09:18:20;;;;;;;4.95;2.40;;;;;;;13.74;nan;100247.44;5002511;28;20073;-55
2023/03/23 09:20:46;;;;;;;4.18;1.77;;;;;;;13.76;nan;100253.47;5000045;28;20045;-51
2023/03/23 09:23:12;;;;;;;6.70;2.65;;;;;;;13.76;nan;100261.41;5002865;28;20093;-51
2023/03/23 09:25:38;;;;;;;4.90;2.40;;;;;;;13.77;nan;100260.44;5004142;28;20392;-56
2023/03/23 09:28:04;;;;;;;5.38;1.85;;;;;;;13.81;nan;100256.59;5008410;28;20109;-52
2023/03/23 09:30:32;;;;;;;5.60;2.00;;;;;;;13.84;nan;100253.72;5004263;28;20034;-51
2023/03/23 09:33:01;;;;;;;4.20;1.77;;;;;;;13.86;nan;100259.69;5007243;28;20034;-52
2023/03/23 09:35:27;;;;;;;4.95;1.95;;;;;;;13.89;nan;100259.44;5009144;28;20036;-52
2023/03/23 09:37:53;;;;;;;6.80;1.83;;;;;;;13.95;nan;100252.81;4994954;28;20353;-52
2023/03/23 09:40:24;;;;;;;5.03;1.88;;;;;;;13.99;nan;100268.31;5002511;28;20464;-52
2023/03/23 09:43:18;;;;;;;5.35;2.17;;;;;;;14.01;nan;100253.19;5005147;28;20030;-51
2023/03/23 09:46:07;;;;;;;9.13;3.90;;;;;;;14.07;nan;100243.06;5009119;28;20642;-52
2023/03/23 09:48:51;;;;;;;5.65;2.60;;;;;;;14.14;nan;100237.16;5009410;28;20030;-52
2023/03/23 09:51:36;;;;;;;4.93;2.05;;;;;;;14.14;nan;100239.00;5006087;28;20492;-50
2023/03/23 09:54:10;;;;;;;4.45;2.20;;;;;;;14.14;nan;100244.28;4998406;28;20038;-52
2023/03/23 09:56:36;;;;;;;3.05;1.80;;;;;;;14.12;nan;100249.69;5002675;28;20026;-53
2023/03/23 09:59:24;;;;;;;6.15;2.08;;;;;;;14.10;nan;100253.41;5002706;28;20018;-54
2023/03/23 10:01:58;;;;;;;7.53;2.10;;;;;;;14.11;nan;100248.00;5007556;28;20084;-52
2023/03/23 10:04:35;;;;;;;4.00;2.30;;;;;;;14.15;nan;100236.22;5006820;28;20029;-53
2023/03/23 10:07:29;;;;;;;5.80;2.33;;;;;;;14.26;nan;100242.41;5008597;28;20120;-55
2023/03/23 10:09:57;;;;;;;4.47;2.15;;;;;;;14.33;nan;100228.56;4997314;28;20496;-52
2023/03/23 10:12:44;;;;;;;4.35;2.33;;;;;;;14.45;nan;100241.75;5002328;28;20025;-52
2023/03/23 10:15:12;;;;;;;6.30;2.20;;;;;;;14.55;nan;100245.34;5001948;28;20026;-51
2023/03/23 10:17:52;;;;;;;5.13;2.50;;;;;;;14.66;nan;100246.25;5004795;28;20021;-52
2023/03/23 10:20:30;;;;;;;5.53;1.90;;;;;;;14.73;nan;100242.16;5001898;28;20100;-51
2023/03/23 10:23:33;;;;;;;4.13;2.17;;;;;;;14.73;nan;100255.41;5005126;28;20275;-51
2023/03/23 10:26:22;;;;;;;3.50;1.77;;;;;;;14.78;nan;100250.56;4995426;28;20042;-52
2023/03/23 10:28:56;;;;;;;4.38;2.15;;;;;;;14.82;nan;100251.16;5003503;28;20060;-52
2023/03/23 10:31:45;;;;;;;4.60;2.08;;;;;;;14.92;nan;100258.19;5001302;28;20026;-52
2023/03/23 10:34:18;;;;;;;6.43;2.20;;;;;;;15.04;nan;100255.50;5003474;28;20056;-52
2023/03/23 10:36:58;;;;;;;5.72;1.90;;;;;;;15.11;nan;100256.63;5000035;28;20024;-54
2023/03/23 10:39:29;;;;;;;3.25;1.70;;;;;;;15.13;nan;100244.09;5003380;28;20113;-54
2023/03/23 10:41:55;;;;;;;3.17;1.73;;;;;;;15.13;nan;100241.44;4997424;28;20030;-52
2023/03/23 10:44:25;;;;;;;4.47;1.65;;;;;;;15.11;nan;100235.44;5008088;28;20045;-52
2023/03/23 10:46:58;;;;;;;4.70;3.00;;;;;;;15.15;nan;100234.22;5003519;28;20030;-53
2023/03/23 10:49:55;;;;;;;6.85;2.20;;;;;;;15.24;nan;100225.47;5007309;28;20029;-55
2023/03/23 10:52:35;;;;;;;3.10;1.70;;;;;;;15.33;nan;100217.72;5004472;28;20164;-52
2023/03/23 10:55:18;;;;;;;4.00;1.70;;;;;;;15.36;nan;100217.41;5001789;28;20057;-53
2023/03/23 10:57:46;;;;;;;3.15;1.60;;;;;;;15.42;nan;100201.00;5000770;28;20084;-52
2023/03/23 11:00:19;;;;;;;2.55;1.45;;;;;;;15.50;nan;100203.81;5007620;28;20117;-52
2023/03/23 11:03:07;;;;;;;2.92;1.33;;;;;;;15.52;nan;100196.56;4998161;28;20117;-54
2023/03/23 11:05:40;;;;;;;5.30;1.60;;;;;;;15.57;nan;100206.78;5001365;28;20026;-53
2023/03/23 11:08:18;;;;;;;5.97;1.85;;;;;;;15.54;nan;100215.81;5008620;28;20022;-53
2023/03/23 11:11:17;;;;;;;3.60;1.40;;;;;;;15.58;nan;100227.00;5006736;28;20147;-52
2023/03/23 11:13:46;;;;;;;6.00;1.38;;;;;;;15.59;nan;100222.56;5008702;28;20034;-53
2023/03/23 11:16:34;;;;;;;2.13;1.30;;;;;;;15.64;nan;100215.03;5000702;28;20030;-54
2023/03/23 11:19:11;;;;;;;4.10;1.58;;;;;;;15.73;nan;100224.84;5010180;28;20033;-53
2023/03/23 11:21:38;;;;;;;5.43;1.35;;;;;;;15.89;nan;100226.16;5005805;28;20038;-51
2023/03/23 11:24:05;;;;;;;3.08;1.77;;;;;;;15.94;nan;100237.22;5006557;28;20079;-53
2023/03/23 11:26:33;;;;;;;3.28;1.63;;;;;;;16.03;nan;100231.09;5007811;28;20041;-51
2023/03/23 11:29:11;;;;;;;4.65;1.70;;;;;;;16.14;nan;100238.09;5005557;28;20030;-51
2023/03/23 11:32:00;;;;;;;2.95;1.33;;;;;;;16.17;nan;100234.31;5004719;28;20095;-54
2023/03/23 11:34:41;;;;;;;4.80;1.40;;;;;;;16.22;nan;100229.44;5004807;28;20040;-52
2023/03/23 11:37:40;;;;;;;5.25;1.60;;;;;;;16.23;nan;100236.44;5009694;28;20504;-52
2023/03/23 11:40:09;;;;;;;3.55;1.23;;;;;;;16.19;nan;100240.31;5002259;28;20050;-51
2023/03/23 11:42:57;;;;;;;6.03;1.77;;;;;;;16.12;nan;100242.69;5009604;28;20430;-55
2023/03/23 11:45:32;;;;;;;4.20;0.98;;;;;;;16.10;nan;100242.84;5012486;28;20037;-53
2023/03/23 11:48:10;;;;;;;5.60;1.20;;;;;;;16.14;nan;100238.91;5011216;28;20087;-53
2023/03/23 11:51:01;;;;;;;3.63;1.08;;;;;;;16.18;nan;100249.25;5004233;28;20721;-52
2023/03/23 11:53:42;;;;;;;2.67;1.25;;;;;;;16.19;nan;100248.28;5006392;28;20493;-52
2023/03/23 11:56:23;;;;;;;2.17;1.00;;;;;;;16.23;nan;100252.34;5008377;28;20496;-51